DF1CHB-9 messages


fromtotime message
DF1CHB DF1CHB-9 06/21 20:36:28z Reply ?PING?
DF1CHB-9 F4AHV-9 06/19 18:07:29z Send another Super! pour info serai en vol les 21 de1820z a 0400z et 23 de 1825z{62}
F4AHV-9 DF1CHB-9 06/19 16:40:28z Reply ok c'est noté. Bon vent! 73
F4AHV-9 DF1CHB-9 06/19 16:07:47z Reply gens tres sympa., accueil chaleureux
F4AHV-9 DF1CHB-9 06/19 16:06:53z Reply oui super bien, baleines, oiseaux, meteo moyenne 73
DF1CHB-9 F4AHV-9 06/19 14:40:49z Send another Bonjour JF, j'espere que votre voyage se deroule bien?{61}
WXBOT DF1CHB-9 06/19 05:17:53z Reply EDDL 190450Z 23006KT 9999 SCT013 OVC036 15/13 Q1022 BECMG BKN014{QA}60
DF1CHB-9 WXBOT 06/19 05:17:52z Send another eddl{60}
WXBOT DF1CHB-9 06/17 04:59:02z Reply EDDE 170450Z 24004KT CAVOK 14/12 Q1016 NOSIG{NR}5I
DF1CHB-9 WXBOT 06/17 04:59:00z Send another EDDE{5I}
DF1CHB-9 DF1CHB-G 06/16 19:59:15z Send another ?PING?{5H}
SA7SKY DF1CHB-9 06/16 13:45:46z Reply I am mobile. Later visitor :-){1
DF1CHB-9 SA7SKY 06/16 10:02:18z Send another go safely... 73{7O}1
DF1CHB-9 SA7SKY 06/16 10:02:11z Send another Hi ;-){7N}1
DF1CHB-9 SA7SKY 06/16 10:01:50z Send another Hi Helge, will leave hotel in 40min, "sse" you later on my screen ;{7M}
DF1CHB-9 F4ACU-7 06/16 08:14:55z Send another "Po-Po-Po-PONG!" comme disait Beethoven ;-){7L}80
DF1CHB-9 F4ACU-7 06/16 07:25:08z Send another AA:Autoreply- Sorry no-one at the keyboard, 73{7K}80
F4ACU-7 DF1CHB-9 06/16 07:25:07z Reply Un ti`PONG 73{80
WXBOT DF1CHB-9 06/16 06:37:23z Reply EDNY 160620Z AUTO 04004KT 9999 // NCD 16/11 Q1016{KR}7J
DF1CHB-9 WXBOT 06/16 06:37:21z Send another EDNY{7J}KG
WXBOT DF1CHB-9 06/15 20:30:46z Reply EDNY 151950Z 03004KT CAVOK 18/11 Q1017{KG}7I
DF1CHB-9 WXBOT 06/15 20:30:45z Send another EDNY{7I}
DF1CHB-9 F4AHV-9 06/15 12:26:00z Send another 73 depuis HAMRADIO malheureusement termine depuis qques semaines hi{7H}
F4AHV-9 DF1CHB-9 06/14 17:21:43z Reply je surveille et serai actif rpn 73{64
DF1CHB-9 F4AHV-9 06/14 16:26:58z Send another Bonne route, 73{5G}
DF1CHB-9 F4AHV-9 06/14 16:25:01z Send another Hier soir F4ACU-1 digipeaté par un Boeing ;-){5F}
DF1CHB-9 F4AHV-9 06/14 16:23:22z Send another demain en vol entre 0300z-1035z{5E}
DF1CHB-9 F4AHV-9 06/14 16:21:41z Send another Bonjour JF depuis Erfurt/DL{5D}
DF1CHB-9 F4AHV-9 06/14 14:52:19z Send another Bonjour JF, content de te "voir" de nouveau ;-){5C}
WXBOT DF1CHB-9 06/13 06:05:19z Reply EDDE 130550Z 33011KT 9999 FEW023 SCT049 BKN110 13/10 Q1012 NOSIG{HO}5C
DF1CHB-9 WXBOT 06/13 06:05:18z Send another EDDE{5C}
DF1CHB-9 F1MHV-9 06/10 17:28:30z Send another qsl{5z}30
F1MHV-9 DF1CHB-9 06/10 17:28:12z Reply test{30
WXBOT DF1CHB-9 06/10 17:11:00z Reply EDDL 101650Z 36007KT 340V050 9999 FEW038 SCT300 25/16 Q1011 NOSIG{ZQ}5y
DF1CHB-9 WXBOT 06/10 17:10:57z Send another EDDL{5y}
F1MHV-9 DF1CHB-9 06/06 18:18:35z Reply test{28
DF1CHB-9 F1MHV-9 06/06 18:14:57z Send another QSL{5B}28
WXBOT DF1CHB-9 06/06 18:11:23z Reply EDDC 061750Z 08014KT 050V110 CAVOK 21/06 Q1015 NOSIG{RT}5A
DF1CHB-9 WXBOT 06/06 18:11:22z Send another EDDC{5A}RS
WXBOT DF1CHB-9 06/06 18:11:16z Reply EDDL 061750Z 01005KT CAVOK 28/14 Q1011 NOSIG{RS}59
DF1CHB-9 WXBOT 06/06 18:11:15z Send another EDDL{59}RJ
DF1CHB-9 F1MHV-9 06/06 12:46:18z Send another Test{58}
DF1CHB-9 DB0ADD 06/06 12:44:51z Send another ?APRSM
DF1CHB-9 DB0ADD 06/06 12:44:43z Send another ?VER
WXBOT DF1CHB-9 06/06 12:33:44z Reply EDDC 061220Z 07013KT 040V100 CAVOK 23/11 Q1016 NOSIG{RJ}57
DF1CHB-9 WXBOT 06/06 12:33:43z Send another EDDC{57}
DF1CHB-9 F4AHV-9 06/03 18:26:28z Send another Bonjour JF, bien recu email et photos, merci{5x}
WXBOT DF1CHB-9 06/03 07:28:16z Reply EDDL 030720Z VRB02KT 8000 FEW012 SCT016 BKN038 20/15 Q1019 NOSIG{NA}5w
DF1CHB-9 WXBOT 06/03 07:28:15z Send another eddl{5w}
DF1CHB-9 F4ACU-5 06/02 09:32:01z Send another AA:Autoreply- Sorry, no one is at the keyboard, try F1MHV-9{5v}3
F4ACU-5 DF1CHB-9 06/02 09:32:00z Reply Et re-PONG !!{3
WXBOT DF1CHB-9 06/02 05:42:32z Reply EDDL 020520Z 24005KT 5000 BR OVC009 17/15 Q1018 TEMPO 4000{KN}5u
DF1CHB-9 WXBOT 06/02 05:42:31z Send another eddl{5u}FO
ANSRVR DF1CHB-9 06/01 22:43:25z Reply N:RPRNET Removed From Group
DF1CHB-9 F4ACU-1 06/01 18:06:31z Send another AA:Autoreply- Sorry, no one is at the keyboard, try F1MHV-9{5t}Eo
F4ACU-1 DF1CHB-9 06/01 17:59:03z Reply ?PONG? :-D{Eo}
ANSRVR DF1CHB-9 06/01 10:43:17z Reply N:RPRNET Now Monitoring
DF1CHB-9 ANSRVR 06/01 10:43:17z Send another J RPRNET{5s}
ANSRVR DF1CHB-9 06/01 10:07:43z Reply No Memberships
DF1CHB-9 ANSRVR 06/01 10:07:41z Send another L{5r}
ANSRVR DF1CHB-9 06/01 10:07:17z Reply YAESU(1) YOU(1) YYZ(1)
ANSRVR DF1CHB-9 06/01 10:07:17z Reply WEATHER(1) WESTCENTRALWISC(1) WOTA(2) WTXAPRS(1) WX(1) Y21(1)+
ANSRVR DF1CHB-9 06/01 10:07:17z Reply UNICAM(1) UP(1) VE7(1) VENUS(1) W5AW(1) WARC(1) WATCHING(1)+
ANSRVR DF1CHB-9 06/01 10:07:17z Reply TROUBLESHOOTING(1) TROUBLSHOOTING(1) U(1) UIMCAM(1) UIVIEW(1)+
ANSRVR DF1CHB-9 06/01 10:07:17z Reply SWEDEN(1) SWUKAPRS(1) TEST(1) TEXAS(1) TGT(1) TRILUG(1)+
ANSRVR DF1CHB-9 06/01 10:07:17z Reply SKYWARM(1) SKYWARN(2) SONTWX(1) SOTA(2) SPB(1) SRARC(1) SRVR(1)+
ANSRVR DF1CHB-9 06/01 10:07:17z Reply SCOUTS(1) SCR(1) SECURING(1) SHOW(1) SIBIU(1) SIEMENSHAM(1)+
ANSRVR DF1CHB-9 06/01 10:07:17z Reply RRPNET(1) RUSSIA(1) SARA(1) SARES(1) SATELLITE(2) SATERN(1)+
ANSRVR DF1CHB-9 06/01 10:07:17z Reply ROCKETS(4) ROCKLIN4(1) RPPNET(1) RPR(1) RPRNET(2) RPRSVR(1)+
ANSRVR DF1CHB-9 06/01 10:07:17z Reply REDCROSS(1) REDDDIT(1) REDDIT(1) RESEND(1) RMR(1) RNEYV(1)+
ANSRVR DF1CHB-9 06/01 10:07:17z Reply PSAT(1) QSL(1) QST(1) QTST(1) RAMROD(1) RCU(1) RECEIVED(1)+
ANSRVR DF1CHB-9 06/01 10:07:17z Reply PITTSCARES(1) PLANES(1) PNW(1) POLARIS(1) PRUEBA(1) PRUEBA2(1)+
ANSRVR DF1CHB-9 06/01 10:07:17z Reply OKPARS(1) OKPRS(1) P(1) PA6SHB(1) PAOEM(1) PCARC(2) PIT(1)+
ANSRVR DF1CHB-9 06/01 10:07:17z Reply OE7(1) OK(1) OKAPRS(1) OKARES(1) OKARPS(1) OKLAHOMA(1) OKLAPRS(1)+
ANSRVR DF1CHB-9 06/01 10:07:17z Reply NOW(1) NPOTA(1) NWAPRS(1) NWS(1) NYQSO(1) OCARES(1) ODARC(1)+
ANSRVR DF1CHB-9 06/01 10:07:17z Reply MDAA(1) MODE(1) NEOST(1) NET104(1) NEVADA(1) NEWQUAY(1) NIX(1)+
ANSRVR DF1CHB-9 06/01 10:07:17z Reply LUSITANOS(1) MANPACDAYRU(1) MANPACKDAYRU(1) MANPACKRU(1) MARS(1)+
ANSRVR DF1CHB-9 06/01 10:07:17z Reply LCRA(1) LINUXQRU(1) LJRA(1) LJRC(1) LLO(1) LUSITANO(1)+
ANSRVR DF1CHB-9 06/01 10:07:17z Reply JUTBERG(1) K(1) KD4TWJ(1) KIWI(1) KT5DIG(1) KZK(1) L(1) LAST(1)+
ANSRVR DF1CHB-9 06/01 10:07:17z Reply ITOMM(1) J(1) JA1YBP(1) JACK(1) JAPRSX(1) JOTA(1) JOTI(1) JT65(1)+
ANSRVR DF1CHB-9 06/01 10:07:17z Reply IOTA(1) IPRS(1) IQ8UN(1) IRELAND(1) IRLP(2) IRMA(1) ISS(4) ITM(1)+
ANSRVR DF1CHB-9 06/01 10:07:17z Reply HOPKINSCOUNTYKY(1) HUN(1) HVDFA(1) I8UN(1) IN(1) INFO(1) INTO(1)+
ANSRVR DF1CHB-9 06/01 10:07:17z Reply HELLO(1) HFMOBILE(1) HFPACKET(1) HIII(1) HMCRACES(1)+
ANSRVR DF1CHB-9 06/01 10:07:17z Reply GETTING(1) GRAS(1) GROUP(1) GXXNET(1) H24(1) HB9MNP(1) HEARD(1)+
ANSRVR DF1CHB-9 06/01 10:07:17z Reply FOXHUNTING(1) FRANCE(1) FROM(1) G6UIMTV(1) GAVILAN(1) GCARN(1)+
ANSRVR DF1CHB-9 06/01 10:07:17z Reply FDWL2K(1) FDXTST(1) FILE(1) FJCRUISER(1) O:FLYINGAPRS(1) FOR(1)+
ANSRVR DF1CHB-9 06/01 10:07:17z Reply EA5GFY(1) ECHOLINK(3) ECLIPSE(1) EME(1) ESSAGES(1) EX(1) FD(1)+
ANSRVR DF1CHB-9 06/01 10:07:17z Reply DEERCAM(1) DIPSPIT(1) DMR(1) DSTAR(1) DX(1) EA4BNQ(1) EA4OF(1)+
ANSRVR DF1CHB-9 06/01 10:07:17z Reply CQSRVR(1) CRPSVR(1) CSTG(1) CVARS(1) CZECH(1) D(1) DARC(1) DE(1)+
ANSRVR DF1CHB-9 06/01 10:07:17z Reply CLRAYNET(1) COMNET(1) CONFIG(1) COTA(1) CQ(2) O:CQRPRNET(1)+
ANSRVR DF1CHB-9 06/01 10:07:17z Reply CD(1) CDGAPRS(1) CDGISS(1) CDGVHF(1) CHARRANES(1) CIAO(1) CIAO7(1)+
ANSRVR DF1CHB-9 06/01 10:07:17z Reply BCG(1) BLN(1) BLN1(1) BPQAPRS(1) BROSVR(1) C(1) C4FM(1) CAN(1)+
ANSRVR DF1CHB-9 06/01 10:07:17z Reply BALLON(1) BALLOOM(1) BALLOON(3) BALLOONN(1) BALOON(1) BATC(1)+
ANSRVR DF1CHB-9 06/01 10:07:17z Reply APRSX(1) ARE(1) ARES(1) ARISS(1) ARRL(1) ARS(1) AT(1) ATGP(1) B(1)+
ANSRVR DF1CHB-9 06/01 10:07:17z Reply APRSIS(1) APRSIS32(8) APRSISCAFE(1) APRSISCE(2) APRSSATS(2)+
ANSRVR DF1CHB-9 06/01 10:07:17z Reply APRI32(1) APRS(2) APRSDROID(1) APRSHS(1) APRSI32(1) APRSICE32(1)+
ANSRVR DF1CHB-9 06/01 10:07:17z Reply AAREA(1) AGAIN(1) ALL(1) ALMOST(1) AMSAT(1) ANSRVR(2) AO92(1)+
ANSRVR DF1CHB-9 06/01 10:07:17z Reply Active Groups: O:10M(1) 123(1) 4(1) 4X4RNR(1) 73(1) A(1) A092(1)+
DF1CHB-9 ANSRVR 06/01 10:07:16z Send another ?{5q}
DF1CHB-9 METAR 06/01 10:06:42z Send another EDDL{5p}